sensor_id;sensor_type;location;lat;lon;timestamp;P1;durP1;ratioP1;P2;durP2;ratioP2
46491;SDS011;32206;51.446;6.792;2022-12-20T00:01:56;1.63;;;1.25;;
46491;SDS011;32206;51.446;6.792;2022-12-20T00:04:21;1.30;;;1.20;;
46491;SDS011;32206;51.446;6.792;2022-12-20T00:06:47;2.97;;;1.60;;
46491;SDS011;32206;51.446;6.792;2022-12-20T00:09:13;2.08;;;1.70;;
46491;SDS011;32206;51.446;6.792;2022-12-20T00:11:39;3.15;;;1.52;;
46491;SDS011;32206;51.446;6.792;2022-12-20T00:14:06;1.75;;;1.38;;
46491;SDS011;32206;51.446;6.792;2022-12-20T00:16:32;2.40;;;1.35;;
46491;SDS011;32206;51.446;6.792;2022-12-20T00:18:59;2.30;;;1.45;;
46491;SDS011;32206;51.446;6.792;2022-12-20T00:21:26;1.58;;;1.33;;
46491;SDS011;32206;51.446;6.792;2022-12-20T00:23:53;3.55;;;1.35;;
46491;SDS011;32206;51.446;6.792;2022-12-20T00:26:20;3.17;;;1.58;;
46491;SDS011;32206;51.446;6.792;2022-12-20T00:28:48;4.65;;;1.60;;
46491;SDS011;32206;51.446;6.792;2022-12-20T00:31:15;2.70;;;1.17;;
46491;SDS011;32206;51.446;6.792;2022-12-20T00:33:43;3.42;;;1.17;;
46491;SDS011;32206;51.446;6.792;2022-12-20T00:36:10;1.20;;;1.10;;
46491;SDS011;32206;51.446;6.792;2022-12-20T00:38:35;1.45;;;1.30;;
46491;SDS011;32206;51.446;6.792;2022-12-20T00:41:02;2.30;;;1.33;;
46491;SDS011;32206;51.446;6.792;2022-12-20T00:43:28;3.13;;;1.33;;
46491;SDS011;32206;51.446;6.792;2022-12-20T00:45:54;3.28;;;1.45;;
46491;SDS011;32206;51.446;6.792;2022-12-20T00:48:20;1.67;;;1.48;;
46491;SDS011;32206;51.446;6.792;2022-12-20T00:50:46;3.22;;;1.45;;
46491;SDS011;32206;51.446;6.792;2022-12-20T00:53:12;3.97;;;1.00;;
46491;SDS011;32206;51.446;6.792;2022-12-20T00:55:41;3.20;;;2.15;;
46491;SDS011;32206;51.446;6.792;2022-12-20T00:58:08;2.67;;;1.00;;
46491;SDS011;32206;51.446;6.792;2022-12-20T01:00:33;2.75;;;1.25;;
46491;SDS011;32206;51.446;6.792;2022-12-20T01:02:59;0.85;;;0.80;;
46491;SDS011;32206;51.446;6.792;2022-12-20T01:05:24;1.42;;;0.80;;
46491;SDS011;32206;51.446;6.792;2022-12-20T01:07:50;1.25;;;1.15;;
46491;SDS011;32206;51.446;6.792;2022-12-20T01:10:16;1.83;;;1.00;;
46491;SDS011;32206;51.446;6.792;2022-12-20T01:12:42;2.08;;;1.30;;
46491;SDS011;32206;51.446;6.792;2022-12-20T01:15:10;3.53;;;1.42;;
46491;SDS011;32206;51.446;6.792;2022-12-20T01:17:36;1.40;;;1.17;;
46491;SDS011;32206;51.446;6.792;2022-12-20T01:20:02;2.40;;;1.15;;
46491;SDS011;32206;51.446;6.792;2022-12-20T01:22:29;2.75;;;1.17;;
46491;SDS011;32206;51.446;6.792;2022-12-20T01:24:54;1.00;;;0.90;;
46491;SDS011;32206;51.446;6.792;2022-12-20T01:27:20;1.33;;;1.13;;
46491;SDS011;32206;51.446;6.792;2022-12-20T01:29:46;4.32;;;1.40;;
46491;SDS011;32206;51.446;6.792;2022-12-20T01:32:12;1.98;;;1.05;;
46491;SDS011;32206;51.446;6.792;2022-12-20T01:34:37;1.95;;;1.13;;
46491;SDS011;32206;51.446;6.792;2022-12-20T01:37:03;3.40;;;1.42;;
46491;SDS011;32206;51.446;6.792;2022-12-20T01:39:28;2.15;;;1.35;;
46491;SDS011;32206;51.446;6.792;2022-12-20T01:41:54;0.95;;;0.88;;
46491;SDS011;32206;51.446;6.792;2022-12-20T01:46:46;3.25;;;1.13;;
46491;SDS011;32206;51.446;6.792;2022-12-20T01:49:14;3.10;;;1.48;;
46491;SDS011;32206;51.446;6.792;2022-12-20T01:51:57;2.75;;;1.02;;
46491;SDS011;32206;51.446;6.792;2022-12-20T01:54:29;3.97;;;1.27;;
46491;SDS011;32206;51.446;6.792;2022-12-20T01:57:05;2.90;;;1.05;;
46491;SDS011;32206;51.446;6.792;2022-12-20T01:59:34;0.93;;;0.80;;
46491;SDS011;32206;51.446;6.792;2022-12-20T02:02:03;1.45;;;1.00;;
46491;SDS011;32206;51.446;6.792;2022-12-20T02:04:33;1.58;;;0.98;;
46491;SDS011;32206;51.446;6.792;2022-12-20T02:06:59;3.08;;;1.00;;
46491;SDS011;32206;51.446;6.792;2022-12-20T02:09:25;2.95;;;0.98;;
46491;SDS011;32206;51.446;6.792;2022-12-20T02:17:35;2.55;;;1.23;;
46491;SDS011;32206;51.446;6.792;2022-12-20T02:31:39;1.25;;;1.15;;
46491;SDS011;32206;51.446;6.792;2022-12-20T02:34:11;0.80;;;0.77;;
46491;SDS011;32206;51.446;6.792;2022-12-20T02:36:38;4.25;;;0.90;;
46491;SDS011;32206;51.446;6.792;2022-12-20T02:39:03;1.67;;;1.00;;
46491;SDS011;32206;51.446;6.792;2022-12-20T02:41:31;1.85;;;1.30;;
46491;SDS011;32206;51.446;6.792;2022-12-20T02:44:07;1.67;;;1.08;;
46491;SDS011;32206;51.446;6.792;2022-12-20T02:46:57;2.88;;;1.20;;
46491;SDS011;32206;51.446;6.792;2022-12-20T02:49:28;2.13;;;1.33;;
46491;SDS011;32206;51.446;6.792;2022-12-20T02:51:56;1.60;;;1.50;;
46491;SDS011;32206;51.446;6.792;2022-12-20T02:54:25;5.13;;;1.50;;
46491;SDS011;32206;51.446;6.792;2022-12-20T02:56:56;2.22;;;1.40;;
46491;SDS011;32206;51.446;6.792;2022-12-20T03:00:00;4.05;;;1.30;;
46491;SDS011;32206;51.446;6.792;2022-12-20T03:02:29;1.58;;;1.25;;
46491;SDS011;32206;51.446;6.792;2022-12-20T03:05:19;3.92;;;1.60;;
46491;SDS011;32206;51.446;6.792;2022-12-20T03:07:48;3.50;;;1.40;;
46491;SDS011;32206;51.446;6.792;2022-12-20T03:10:14;2.95;;;2.35;;
46491;SDS011;32206;51.446;6.792;2022-12-20T03:12:41;2.00;;;1.40;;
46491;SDS011;32206;51.446;6.792;2022-12-20T03:15:07;2.97;;;1.75;;
46491;SDS011;32206;51.446;6.792;2022-12-20T03:17:33;2.33;;;1.52;;
46491;SDS011;32206;51.446;6.792;2022-12-20T03:19:59;2.75;;;1.58;;
46491;SDS011;32206;51.446;6.792;2022-12-20T03:22:24;2.67;;;1.67;;
46491;SDS011;32206;51.446;6.792;2022-12-20T03:24:51;3.75;;;2.00;;
46491;SDS011;32206;51.446;6.792;2022-12-20T03:27:16;5.32;;;2.35;;
46491;SDS011;32206;51.446;6.792;2022-12-20T03:29:42;4.43;;;2.30;;
46491;SDS011;32206;51.446;6.792;2022-12-20T03:32:10;3.15;;;1.77;;
46491;SDS011;32206;51.446;6.792;2022-12-20T03:34:36;4.70;;;3.67;;
46491;SDS011;32206;51.446;6.792;2022-12-20T03:37:01;4.03;;;2.42;;
46491;SDS011;32206;51.446;6.792;2022-12-20T03:39:27;5.72;;;2.70;;
46491;SDS011;32206;51.446;6.792;2022-12-20T03:41:53;5.05;;;2.50;;
46491;SDS011;32206;51.446;6.792;2022-12-20T03:44:18;5.00;;;2.60;;
46491;SDS011;32206;51.446;6.792;2022-12-20T03:46:44;4.22;;;2.50;;
46491;SDS011;32206;51.446;6.792;2022-12-20T03:49:15;4.50;;;2.60;;
46491;SDS011;32206;51.446;6.792;2022-12-20T03:51:41;3.33;;;2.50;;
46491;SDS011;32206;51.446;6.792;2022-12-20T03:54:07;7.82;;;2.85;;
46491;SDS011;32206;51.446;6.792;2022-12-20T03:56:32;9.30;;;3.78;;
46491;SDS011;32206;51.446;6.792;2022-12-20T03:58:58;3.70;;;2.83;;
46491;SDS011;32206;51.446;6.792;2022-12-20T04:01:24;4.18;;;3.05;;
46491;SDS011;32206;51.446;6.792;2022-12-20T04:03:55;7.40;;;3.40;;
46491;SDS011;32206;51.446;6.792;2022-12-20T04:06:21;3.15;;;2.92;;
46491;SDS011;32206;51.446;6.792;2022-12-20T04:08:47;9.32;;;3.10;;
46491;SDS011;32206;51.446;6.792;2022-12-20T04:11:13;3.72;;;3.13;;
46491;SDS011;32206;51.446;6.792;2022-12-20T04:13:46;3.10;;;2.90;;
46491;SDS011;32206;51.446;6.792;2022-12-20T04:16:17;5.63;;;3.53;;
46491;SDS011;32206;51.446;6.792;2022-12-20T04:18:44;6.97;;;3.83;;
46491;SDS011;32206;51.446;6.792;2022-12-20T04:21:11;7.57;;;4.18;;
46491;SDS011;32206;51.446;6.792;2022-12-20T04:23:37;4.18;;;3.75;;
46491;SDS011;32206;51.446;6.792;2022-12-20T04:26:05;7.03;;;4.45;;
46491;SDS011;32206;51.446;6.792;2022-12-20T04:28:31;5.43;;;4.82;;
46491;SDS011;32206;51.446;6.792;2022-12-20T04:30:57;5.97;;;4.00;;
46491;SDS011;32206;51.446;6.792;2022-12-20T04:33:23;8.48;;;3.83;;
46491;SDS011;32206;51.446;6.792;2022-12-20T04:35:50;6.57;;;4.47;;
46491;SDS011;32206;51.446;6.792;2022-12-20T04:38:16;9.73;;;4.13;;
46491;SDS011;32206;51.446;6.792;2022-12-20T04:40:43;6.78;;;4.45;;
46491;SDS011;32206;51.446;6.792;2022-12-20T04:43:09;6.38;;;4.10;;
46491;SDS011;32206;51.446;6.792;2022-12-20T04:45:34;7.07;;;4.03;;
46491;SDS011;32206;51.446;6.792;2022-12-20T04:48:00;4.47;;;3.72;;
46491;SDS011;32206;51.446;6.792;2022-12-20T04:50:26;3.35;;;3.05;;
46491;SDS011;32206;51.446;6.792;2022-12-20T04:52:52;4.70;;;3.33;;
46491;SDS011;32206;51.446;6.792;2022-12-20T04:55:37;9.25;;;3.40;;
46491;SDS011;32206;51.446;6.792;2022-12-20T04:58:03;7.18;;;3.67;;
46491;SDS011;32206;51.446;6.792;2022-12-20T05:00:29;7.43;;;3.15;;
46491;SDS011;32206;51.446;6.792;2022-12-20T05:02:56;4.18;;;3.20;;
46491;SDS011;32206;51.446;6.792;2022-12-20T05:05:22;2.83;;;2.55;;
46491;SDS011;32206;51.446;6.792;2022-12-20T05:07:47;3.15;;;2.90;;
46491;SDS011;32206;51.446;6.792;2022-12-20T05:10:15;5.32;;;3.85;;
46491;SDS011;32206;51.446;6.792;2022-12-20T05:12:41;4.78;;;3.20;;
46491;SDS011;32206;51.446;6.792;2022-12-20T05:15:07;4.50;;;3.33;;
46491;SDS011;32206;51.446;6.792;2022-12-20T05:17:33;4.95;;;3.05;;
46491;SDS011;32206;51.446;6.792;2022-12-20T05:19:59;3.80;;;2.97;;
46491;SDS011;32206;51.446;6.792;2022-12-20T05:22:25;16.20;;;5.57;;
46491;SDS011;32206;51.446;6.792;2022-12-20T05:25:10;3.83;;;3.20;;
46491;SDS011;32206;51.446;6.792;2022-12-20T05:27:55;5.72;;;3.70;;
46491;SDS011;32206;51.446;6.792;2022-12-20T05:30:21;6.30;;;2.80;;
46491;SDS011;32206;51.446;6.792;2022-12-20T05:32:46;16.52;;;3.40;;
46491;SDS011;32206;51.446;6.792;2022-12-20T05:35:15;6.45;;;3.00;;
46491;SDS011;32206;51.446;6.792;2022-12-20T05:37:40;5.50;;;3.45;;
46491;SDS011;32206;51.446;6.792;2022-12-20T05:40:06;6.03;;;3.28;;
46491;SDS011;32206;51.446;6.792;2022-12-20T05:42:32;12.18;;;3.63;;
46491;SDS011;32206;51.446;6.792;2022-12-20T05:44:58;4.97;;;3.08;;
46491;SDS011;32206;51.446;6.792;2022-12-20T05:47:25;3.33;;;3.13;;
46491;SDS011;32206;51.446;6.792;2022-12-20T05:49:51;3.28;;;2.97;;
46491;SDS011;32206;51.446;6.792;2022-12-20T05:52:17;4.53;;;2.90;;
46491;SDS011;32206;51.446;6.792;2022-12-20T05:54:42;2.90;;;2.67;;
46491;SDS011;32206;51.446;6.792;2022-12-20T05:57:08;5.65;;;2.70;;
46491;SDS011;32206;51.446;6.792;2022-12-20T05:59:34;6.05;;;2.97;;
46491;SDS011;32206;51.446;6.792;2022-12-20T06:02:00;7.47;;;3.55;;
46491;SDS011;32206;51.446;6.792;2022-12-20T06:04:25;2.70;;;2.50;;
46491;SDS011;32206;51.446;6.792;2022-12-20T06:06:51;2.83;;;2.63;;
46491;SDS011;32206;51.446;6.792;2022-12-20T06:09:17;3.35;;;2.88;;
46491;SDS011;32206;51.446;6.792;2022-12-20T06:11:42;2.92;;;2.58;;
46491;SDS011;32206;51.446;6.792;2022-12-20T06:14:08;6.10;;;2.65;;
46491;SDS011;32206;51.446;6.792;2022-12-20T06:16:33;3.70;;;2.80;;
46491;SDS011;32206;51.446;6.792;2022-12-20T06:19:00;4.40;;;2.72;;
46491;SDS011;32206;51.446;6.792;2022-12-20T06:21:26;4.78;;;2.90;;
46491;SDS011;32206;51.446;6.792;2022-12-20T06:23:52;7.22;;;2.97;;
46491;SDS011;32206;51.446;6.792;2022-12-20T06:26:18;2.78;;;2.28;;
46491;SDS011;32206;51.446;6.792;2022-12-20T06:28:47;6.25;;;2.75;;
46491;SDS011;32206;51.446;6.792;2022-12-20T06:31:16;4.47;;;2.95;;
46491;SDS011;32206;51.446;6.792;2022-12-20T06:33:42;3.42;;;2.53;;
46491;SDS011;32206;51.446;6.792;2022-12-20T06:36:07;2.53;;;2.30;;
46491;SDS011;32206;51.446;6.792;2022-12-20T06:38:33;2.72;;;1.85;;
46491;SDS011;32206;51.446;6.792;2022-12-20T06:40:59;4.05;;;2.35;;
46491;SDS011;32206;51.446;6.792;2022-12-20T06:43:24;3.60;;;2.55;;
46491;SDS011;32206;51.446;6.792;2022-12-20T06:45:50;2.80;;;2.60;;
46491;SDS011;32206;51.446;6.792;2022-12-20T06:48:15;3.72;;;2.00;;
46491;SDS011;32206;51.446;6.792;2022-12-20T06:50:41;3.97;;;2.67;;
46491;SDS011;32206;51.446;6.792;2022-12-20T06:53:07;5.00;;;2.40;;
46491;SDS011;32206;51.446;6.792;2022-12-20T06:55:32;5.63;;;2.08;;
46491;SDS011;32206;51.446;6.792;2022-12-20T06:57:58;3.03;;;2.35;;
46491;SDS011;32206;51.446;6.792;2022-12-20T07:00:23;8.90;;;4.15;;
46491;SDS011;32206;51.446;6.792;2022-12-20T07:02:49;4.43;;;1.90;;
46491;SDS011;32206;51.446;6.792;2022-12-20T07:05:15;4.18;;;2.25;;
46491;SDS011;32206;51.446;6.792;2022-12-20T07:07:40;3.80;;;2.78;;
46491;SDS011;32206;51.446;6.792;2022-12-20T07:10:06;5.13;;;2.00;;
46491;SDS011;32206;51.446;6.792;2022-12-20T07:12:32;4.07;;;1.90;;
46491;SDS011;32206;51.446;6.792;2022-12-20T07:14:58;4.68;;;1.77;;
46491;SDS011;32206;51.446;6.792;2022-12-20T07:17:24;3.33;;;1.67;;
46491;SDS011;32206;51.446;6.792;2022-12-20T07:19:49;2.97;;;2.15;;
46491;SDS011;32206;51.446;6.792;2022-12-20T07:22:15;2.17;;;2.03;;
46491;SDS011;32206;51.446;6.792;2022-12-20T07:24:40;5.53;;;1.92;;
46491;SDS011;32206;51.446;6.792;2022-12-20T07:27:06;1.60;;;1.50;;
46491;SDS011;32206;51.446;6.792;2022-12-20T07:29:32;3.50;;;1.92;;
46491;SDS011;32206;51.446;6.792;2022-12-20T07:31:57;3.10;;;1.60;;
46491;SDS011;32206;51.446;6.792;2022-12-20T07:34:23;4.40;;;1.73;;
46491;SDS011;32206;51.446;6.792;2022-12-20T07:36:49;2.35;;;1.85;;
46491;SDS011;32206;51.446;6.792;2022-12-20T07:39:14;5.50;;;1.85;;
46491;SDS011;32206;51.446;6.792;2022-12-20T07:41:40;3.28;;;1.98;;
46491;SDS011;32206;51.446;6.792;2022-12-20T07:44:06;3.30;;;1.70;;
46491;SDS011;32206;51.446;6.792;2022-12-20T07:46:31;3.08;;;1.77;;
46491;SDS011;32206;51.446;6.792;2022-12-20T07:48:57;3.53;;;1.67;;
46491;SDS011;32206;51.446;6.792;2022-12-20T07:51:27;2.17;;;1.42;;
46491;SDS011;32206;51.446;6.792;2022-12-20T07:54:02;2.63;;;1.70;;
46491;SDS011;32206;51.446;6.792;2022-12-20T07:56:31;1.92;;;1.65;;
46491;SDS011;32206;51.446;6.792;2022-12-20T07:59:00;3.17;;;1.60;;
46491;SDS011;32206;51.446;6.792;2022-12-20T08:01:27;5.65;;;1.70;;
46491;SDS011;32206;51.446;6.792;2022-12-20T08:03:57;1.60;;;1.50;;
46491;SDS011;32206;51.446;6.792;2022-12-20T08:06:26;2.15;;;1.75;;
46491;SDS011;32206;51.446;6.792;2022-12-20T08:08:53;2.92;;;1.63;;
46491;SDS011;32206;51.446;6.792;2022-12-20T08:11:22;1.60;;;1.50;;
46491;SDS011;32206;51.446;6.792;2022-12-20T08:13:49;2.40;;;1.80;;
46491;SDS011;32206;51.446;6.792;2022-12-20T08:16:15;2.22;;;1.50;;
46491;SDS011;32206;51.446;6.792;2022-12-20T08:18:41;4.32;;;1.45;;
46491;SDS011;32206;51.446;6.792;2022-12-20T08:21:06;1.63;;;1.52;;
46491;SDS011;32206;51.446;6.792;2022-12-20T08:23:35;2.60;;;1.77;;
46491;SDS011;32206;51.446;6.792;2022-12-20T08:26:01;5.25;;;1.60;;
46491;SDS011;32206;51.446;6.792;2022-12-20T08:28:26;2.83;;;1.70;;
46491;SDS011;32206;51.446;6.792;2022-12-20T08:30:52;4.18;;;1.80;;
46491;SDS011;32206;51.446;6.792;2022-12-20T08:33:23;2.85;;;1.50;;
46491;SDS011;32206;51.446;6.792;2022-12-20T08:35:55;3.00;;;1.65;;
46491;SDS011;32206;51.446;6.792;2022-12-20T08:38:26;1.92;;;1.35;;
46491;SDS011;32206;51.446;6.792;2022-12-20T08:40:52;1.73;;;1.63;;
46491;SDS011;32206;51.446;6.792;2022-12-20T08:43:18;3.10;;;1.83;;
46491;SDS011;32206;51.446;6.792;2022-12-20T08:45:44;4.20;;;1.80;;
46491;SDS011;32206;51.446;6.792;2022-12-20T08:48:09;2.38;;;1.83;;
46491;SDS011;32206;51.446;6.792;2022-12-20T08:50:35;3.00;;;1.40;;
46491;SDS011;32206;51.446;6.792;2022-12-20T08:53:00;2.78;;;1.73;;
46491;SDS011;32206;51.446;6.792;2022-12-20T08:55:26;1.48;;;1.30;;
46491;SDS011;32206;51.446;6.792;2022-12-20T08:57:51;4.50;;;1.40;;
46491;SDS011;32206;51.446;6.792;2022-12-20T09:00:17;1.45;;;1.23;;
46491;SDS011;32206;51.446;6.792;2022-12-20T09:02:43;3.15;;;1.70;;
46491;SDS011;32206;51.446;6.792;2022-12-20T09:05:09;3.00;;;1.75;;
46491;SDS011;32206;51.446;6.792;2022-12-20T09:07:35;1.98;;;1.35;;
46491;SDS011;32206;51.446;6.792;2022-12-20T09:10:00;2.13;;;1.25;;
46491;SDS011;32206;51.446;6.792;2022-12-20T09:12:27;3.72;;;1.67;;
46491;SDS011;32206;51.446;6.792;2022-12-20T09:14:52;1.92;;;1.70;;
46491;SDS011;32206;51.446;6.792;2022-12-20T09:17:18;3.00;;;1.75;;
46491;SDS011;32206;51.446;6.792;2022-12-20T09:19:44;3.92;;;1.95;;
46491;SDS011;32206;51.446;6.792;2022-12-20T09:22:09;4.93;;;1.40;;
46491;SDS011;32206;51.446;6.792;2022-12-20T09:24:36;6.05;;;1.60;;
46491;SDS011;32206;51.446;6.792;2022-12-20T09:27:02;1.98;;;1.30;;
46491;SDS011;32206;51.446;6.792;2022-12-20T09:29:27;5.63;;;1.70;;
46491;SDS011;32206;51.446;6.792;2022-12-20T09:31:53;3.15;;;1.35;;
46491;SDS011;32206;51.446;6.792;2022-12-20T09:34:18;4.72;;;1.73;;
46491;SDS011;32206;51.446;6.792;2022-12-20T09:36:44;3.85;;;1.48;;
46491;SDS011;32206;51.446;6.792;2022-12-20T09:39:10;3.92;;;1.20;;
46491;SDS011;32206;51.446;6.792;2022-12-20T09:41:43;8.25;;;1.55;;
46491;SDS011;32206;51.446;6.792;2022-12-20T09:44:19;2.13;;;1.60;;
46491;SDS011;32206;51.446;6.792;2022-12-20T09:47:00;3.63;;;1.27;;
46491;SDS011;32206;51.446;6.792;2022-12-20T09:49:30;6.90;;;1.20;;
46491;SDS011;32206;51.446;6.792;2022-12-20T10:00:27;4.35;;;2.00;;
46491;SDS011;32206;51.446;6.792;2022-12-20T10:02:54;2.28;;;1.48;;
46491;SDS011;32206;51.446;6.792;2022-12-20T10:05:32;3.58;;;1.92;;
46491;SDS011;32206;51.446;6.792;2022-12-20T10:10:53;1.80;;;1.70;;
46491;SDS011;32206;51.446;6.792;2022-12-20T10:21:25;4.13;;;1.70;;
46491;SDS011;32206;51.446;6.792;2022-12-20T10:23:57;2.88;;;1.63;;
46491;SDS011;32206;51.446;6.792;2022-12-20T10:26:26;2.47;;;1.60;;
46491;SDS011;32206;51.446;6.792;2022-12-20T10:28:53;4.63;;;2.08;;
46491;SDS011;32206;51.446;6.792;2022-12-20T10:31:19;3.55;;;1.67;;
46491;SDS011;32206;51.446;6.792;2022-12-20T10:33:44;4.53;;;1.67;;
46491;SDS011;32206;51.446;6.792;2022-12-20T10:38:52;6.35;;;1.52;;
46491;SDS011;32206;51.446;6.792;2022-12-20T10:41:28;1.95;;;1.25;;
46491;SDS011;32206;51.446;6.792;2022-12-20T10:46:33;2.90;;;1.42;;
46491;SDS011;32206;51.446;6.792;2022-12-20T10:49:23;3.38;;;1.40;;
46491;SDS011;32206;51.446;6.792;2022-12-20T10:51:56;1.42;;;1.25;;
46491;SDS011;32206;51.446;6.792;2022-12-20T10:54:45;2.30;;;1.30;;
46491;SDS011;32206;51.446;6.792;2022-12-20T10:59:53;3.60;;;1.55;;
46491;SDS011;32206;51.446;6.792;2022-12-20T11:02:28;3.75;;;2.92;;
46491;SDS011;32206;51.446;6.792;2022-12-20T11:07:33;3.47;;;1.73;;
46491;SDS011;32206;51.446;6.792;2022-12-20T11:10:16;2.95;;;1.52;;
46491;SDS011;32206;51.446;6.792;2022-12-20T11:12:53;3.70;;;1.40;;
46491;SDS011;32206;51.446;6.792;2022-12-20T11:15:25;3.35;;;1.50;;
46491;SDS011;32206;51.446;6.792;2022-12-20T11:18:03;2.17;;;1.45;;
46491;SDS011;32206;51.446;6.792;2022-12-20T11:20:42;1.77;;;1.45;;
46491;SDS011;32206;51.446;6.792;2022-12-20T11:23:22;3.05;;;1.80;;
46491;SDS011;32206;51.446;6.792;2022-12-20T11:34:18;2.88;;;1.70;;
46491;SDS011;32206;51.446;6.792;2022-12-20T11:39:39;2.90;;;1.40;;
46491;SDS011;32206;51.446;6.792;2022-12-20T11:55:31;1.77;;;1.25;;
46491;SDS011;32206;51.446;6.792;2022-12-20T11:58:01;6.05;;;1.45;;
46491;SDS011;32206;51.446;6.792;2022-12-20T12:00:35;1.80;;;1.33;;
46491;SDS011;32206;51.446;6.792;2022-12-20T12:03:03;5.75;;;1.60;;
46491;SDS011;32206;51.446;6.792;2022-12-20T12:05:43;3.38;;;1.35;;
46491;SDS011;32206;51.446;6.792;2022-12-20T12:08:24;6.85;;;1.52;;
46491;SDS011;32206;51.446;6.792;2022-12-20T12:10:57;3.88;;;1.63;;
46491;SDS011;32206;51.446;6.792;2022-12-20T12:13:27;2.20;;;1.40;;
46491;SDS011;32206;51.446;6.792;2022-12-20T12:16:05;3.08;;;1.70;;
46491;SDS011;32206;51.446;6.792;2022-12-20T12:18:35;4.05;;;2.40;;
46491;SDS011;32206;51.446;6.792;2022-12-20T12:26:36;2.22;;;1.45;;
46491;SDS011;32206;51.446;6.792;2022-12-20T12:31:47;5.55;;;1.98;;
46491;SDS011;32206;51.446;6.792;2022-12-20T12:40:32;4.10;;;1.75;;
46491;SDS011;32206;51.446;6.792;2022-12-20T12:45:40;5.32;;;1.50;;
46491;SDS011;32206;51.446;6.792;2022-12-20T12:50:48;2.75;;;1.55;;
46491;SDS011;32206;51.446;6.792;2022-12-20T12:56:28;4.65;;;1.50;;
46491;SDS011;32206;51.446;6.792;2022-12-20T13:01:55;5.05;;;1.83;;
46491;SDS011;32206;51.446;6.792;2022-12-20T13:04:24;5.63;;;2.35;;
46491;SDS011;32206;51.446;6.792;2022-12-20T13:06:53;4.35;;;1.77;;
46491;SDS011;32206;51.446;6.792;2022-12-20T13:11:51;3.33;;;1.67;;
46491;SDS011;32206;51.446;6.792;2022-12-20T13:19:38;2.47;;;2.28;;
46491;SDS011;32206;51.446;6.792;2022-12-20T13:27:17;5.10;;;2.65;;
46491;SDS011;32206;51.446;6.792;2022-12-20T13:29:50;7.68;;;2.47;;
46491;SDS011;32206;51.446;6.792;2022-12-20T13:40:55;8.52;;;3.00;;
46491;SDS011;32206;51.446;6.792;2022-12-20T13:43:27;7.95;;;2.95;;
46491;SDS011;32206;51.446;6.792;2022-12-20T13:51:18;4.32;;;2.50;;
46491;SDS011;32206;51.446;6.792;2022-12-20T13:54:28;4.10;;;2.97;;
46491;SDS011;32206;51.446;6.792;2022-12-20T13:56:49;5.15;;;2.60;;
46491;SDS011;32206;51.446;6.792;2022-12-20T13:59:18;7.15;;;2.25;;
46491;SDS011;32206;51.446;6.792;2022-12-20T14:01:55;3.90;;;2.30;;
46491;SDS011;32206;51.446;6.792;2022-12-20T14:04:24;3.00;;;2.10;;
46491;SDS011;32206;51.446;6.792;2022-12-20T14:06:55;2.97;;;2.45;;
46491;SDS011;32206;51.446;6.792;2022-12-20T14:09:28;4.25;;;1.80;;
46491;SDS011;32206;51.446;6.792;2022-12-20T14:12:06;5.45;;;2.22;;
46491;SDS011;32206;51.446;6.792;2022-12-20T14:14:44;10.98;;;2.38;;
46491;SDS011;32206;51.446;6.792;2022-12-20T14:19:41;6.75;;;2.10;;
46491;SDS011;32206;51.446;6.792;2022-12-20T14:22:10;2.88;;;2.38;;
46491;SDS011;32206;51.446;6.792;2022-12-20T14:24:40;4.53;;;1.80;;
46491;SDS011;32206;51.446;6.792;2022-12-20T14:27:09;4.18;;;2.08;;
46491;SDS011;32206;51.446;6.792;2022-12-20T14:29:38;4.80;;;2.72;;
46491;SDS011;32206;51.446;6.792;2022-12-20T14:32:05;5.32;;;2.17;;
46491;SDS011;32206;51.446;6.792;2022-12-20T14:34:41;4.88;;;2.42;;
46491;SDS011;32206;51.446;6.792;2022-12-20T14:39:55;5.50;;;2.30;;
46491;SDS011;32206;51.446;6.792;2022-12-20T14:42:35;6.57;;;2.17;;
46491;SDS011;32206;51.446;6.792;2022-12-20T14:45:24;2.88;;;2.40;;
46491;SDS011;32206;51.446;6.792;2022-12-20T14:47:59;6.18;;;2.50;;
46491;SDS011;32206;51.446;6.792;2022-12-20T14:50:34;5.82;;;2.55;;
46491;SDS011;32206;51.446;6.792;2022-12-20T14:53:02;2.78;;;2.15;;
46491;SDS011;32206;51.446;6.792;2022-12-20T14:55:36;6.47;;;2.40;;
46491;SDS011;32206;51.446;6.792;2022-12-20T15:00:55;3.83;;;2.70;;
46491;SDS011;32206;51.446;6.792;2022-12-20T15:03:23;7.70;;;3.60;;
46491;SDS011;32206;51.446;6.792;2022-12-20T15:05:51;5.20;;;3.63;;
46491;SDS011;32206;51.446;6.792;2022-12-20T15:08:25;4.30;;;3.70;;
46491;SDS011;32206;51.446;6.792;2022-12-20T15:10:54;10.52;;;5.25;;
46491;SDS011;32206;51.446;6.792;2022-12-20T15:13:42;9.98;;;6.85;;
46491;SDS011;32206;51.446;6.792;2022-12-20T15:18:58;13.75;;;6.72;;
46491;SDS011;32206;51.446;6.792;2022-12-20T15:21:36;11.43;;;6.00;;
46491;SDS011;32206;51.446;6.792;2022-12-20T15:24:10;15.98;;;6.10;;
46491;SDS011;32206;51.446;6.792;2022-12-20T15:26:37;7.22;;;3.65;;
46491;SDS011;32206;51.446;6.792;2022-12-20T15:29:03;5.40;;;3.30;;
46491;SDS011;32206;51.446;6.792;2022-12-20T15:31:29;10.93;;;3.97;;
46491;SDS011;32206;51.446;6.792;2022-12-20T15:33:58;4.18;;;3.20;;
46491;SDS011;32206;51.446;6.792;2022-12-20T15:36:27;10.25;;;4.00;;
46491;SDS011;32206;51.446;6.792;2022-12-20T15:38:54;5.68;;;3.70;;
46491;SDS011;32206;51.446;6.792;2022-12-20T15:41:22;11.77;;;5.25;;
46491;SDS011;32206;51.446;6.792;2022-12-20T15:44:00;8.57;;;4.70;;
46491;SDS011;32206;51.446;6.792;2022-12-20T15:46:29;9.10;;;4.00;;
46491;SDS011;32206;51.446;6.792;2022-12-20T15:48:55;8.65;;;5.07;;
46491;SDS011;32206;51.446;6.792;2022-12-20T15:51:35;7.10;;;4.22;;
46491;SDS011;32206;51.446;6.792;2022-12-20T15:54:09;5.15;;;3.97;;
46491;SDS011;32206;51.446;6.792;2022-12-20T15:56:40;6.82;;;3.67;;
46491;SDS011;32206;51.446;6.792;2022-12-20T15:59:06;12.65;;;5.63;;
46491;SDS011;32206;51.446;6.792;2022-12-20T16:01:35;5.50;;;4.20;;
46491;SDS011;32206;51.446;6.792;2022-12-20T16:04:02;5.82;;;4.43;;
46491;SDS011;32206;51.446;6.792;2022-12-20T16:06:29;5.53;;;4.13;;
46491;SDS011;32206;51.446;6.792;2022-12-20T16:08:55;8.20;;;4.85;;
46491;SDS011;32206;51.446;6.792;2022-12-20T16:11:23;7.68;;;4.38;;
46491;SDS011;32206;51.446;6.792;2022-12-20T16:13:54;6.28;;;3.80;;
46491;SDS011;32206;51.446;6.792;2022-12-20T16:16:23;7.43;;;4.07;;
46491;SDS011;32206;51.446;6.792;2022-12-20T16:18:50;4.72;;;3.70;;
46491;SDS011;32206;51.446;6.792;2022-12-20T16:21:18;9.38;;;3.60;;
46491;SDS011;32206;51.446;6.792;2022-12-20T16:23:46;8.88;;;4.13;;
46491;SDS011;32206;51.446;6.792;2022-12-20T16:26:13;9.00;;;3.90;;
46491;SDS011;32206;51.446;6.792;2022-12-20T16:28:40;8.77;;;3.80;;
46491;SDS011;32206;51.446;6.792;2022-12-20T16:31:14;6.40;;;3.33;;
46491;SDS011;32206;51.446;6.792;2022-12-20T16:33:41;9.43;;;4.45;;
46491;SDS011;32206;51.446;6.792;2022-12-20T16:36:09;7.40;;;4.35;;
46491;SDS011;32206;51.446;6.792;2022-12-20T16:38:35;6.88;;;3.92;;
46491;SDS011;32206;51.446;6.792;2022-12-20T16:41:11;5.85;;;3.65;;
46491;SDS011;32206;51.446;6.792;2022-12-20T16:43:39;6.50;;;3.55;;
46491;SDS011;32206;51.446;6.792;2022-12-20T16:46:05;3.97;;;3.53;;
46491;SDS011;32206;51.446;6.792;2022-12-20T16:48:33;8.90;;;3.45;;
46491;SDS011;32206;51.446;6.792;2022-12-20T16:50:59;9.65;;;3.25;;
46491;SDS011;32206;51.446;6.792;2022-12-20T16:53:25;4.28;;;3.22;;
46491;SDS011;32206;51.446;6.792;2022-12-20T16:55:50;10.13;;;3.50;;
46491;SDS011;32206;51.446;6.792;2022-12-20T16:58:17;8.20;;;3.67;;
46491;SDS011;32206;51.446;6.792;2022-12-20T17:00:42;7.68;;;3.50;;
46491;SDS011;32206;51.446;6.792;2022-12-20T17:03:08;3.58;;;3.28;;
46491;SDS011;32206;51.446;6.792;2022-12-20T17:05:34;5.70;;;3.50;;
46491;SDS011;32206;51.446;6.792;2022-12-20T17:08:01;5.53;;;3.67;;
46491;SDS011;32206;51.446;6.792;2022-12-20T17:10:27;5.38;;;3.33;;
46491;SDS011;32206;51.446;6.792;2022-12-20T17:12:54;6.10;;;2.97;;
46491;SDS011;32206;51.446;6.792;2022-12-20T17:15:22;8.02;;;4.07;;